Time;durP1;ratioP1;P1;durP2;ratioP2;P2;SDS_P1;SDS_P2;PMS_P1;PMS_P2;Temp;Humidity;BMP_temperature;BMP_pressure;BME280_temperature;BME280_humidity;BME280_pressure;Samples;Min_cycle;Max_cycle;Signal;HPM_P1;HPM_P2
2022/06/05 00:01:18;;;;;;;16.77;4.90;;;;;;;22.05;67.64;100759.28;2053081;28;20042;-72
2022/06/05 00:02:50;;;;;;;12.50;5.30;;;;;;;22.04;67.88;100765.59;2054627;28;20050;-73
2022/06/05 00:04:28;;;;;;;15.93;4.68;;;;;;;22.11;67.78;100759.09;2054990;28;20566;-72
2022/06/05 00:06:11;;;;;;;12.77;5.38;;;;;;;22.17;67.49;100758.00;2058378;28;20120;-73
2022/06/05 00:07:41;;;;;;;12.30;4.90;;;;;;;22.25;67.14;100764.88;2052396;28;20046;-72
2022/06/05 00:09:13;;;;;;;16.15;5.43;;;;;;;22.31;67.02;100754.88;2038710;29;20047;-73
2022/06/05 00:10:41;;;;;;;12.38;5.10;;;;;;;22.32;66.82;100751.25;2053996;28;20058;-72
2022/06/05 00:12:09;;;;;;;12.02;4.88;;;;;;;22.29;66.86;100751.34;2055421;28;20082;-71
2022/06/05 00:13:38;;;;;;;17.05;5.07;;;;;;;22.31;66.78;100747.69;2046303;29;20142;-72
2022/06/05 00:15:01;;;;;;;12.57;4.22;;;;;;;22.34;66.85;100746.69;2046601;29;20047;-73
2022/06/05 00:16:27;;;;;;;10.77;4.80;;;;;;;22.37;66.60;100746.59;2045395;29;20047;-72
2022/06/05 00:17:48;;;;;;;13.38;4.45;;;;;;;22.28;66.94;100739.69;2052988;28;20070;-72
2022/06/05 00:19:11;;;;;;;9.48;4.70;;;;;;;22.13;66.99;100749.13;2054444;28;20767;-71
2022/06/05 00:20:34;;;;;;;13.60;4.88;;;;;;;22.01;67.59;100751.34;2060447;28;20046;-72
2022/06/05 00:21:56;;;;;;;10.20;4.38;;;;;;;21.84;67.78;100746.47;2064128;28;20057;-72
2022/06/05 00:23:19;;;;;;;12.35;5.18;;;;;;;21.71;68.32;100754.03;2063925;28;20537;-72
2022/06/05 00:24:42;;;;;;;14.52;5.13;;;;;;;21.61;68.59;100748.97;2040918;29;20044;-72
2022/06/05 00:26:16;;;;;;;11.30;4.90;;;;;;;21.53;68.99;100745.66;2053635;28;20688;-72
2022/06/05 00:27:48;;;;;;;13.52;4.97;;;;;;;21.53;69.16;100751.88;2054762;28;20038;-72
2022/06/05 00:29:21;;;;;;;13.05;4.88;;;;;;;21.64;68.93;100754.25;2050858;28;20054;-72
2022/06/05 00:30:52;;;;;;;14.00;4.88;;;;;;;21.74;68.37;100745.88;2053800;28;20050;-72
2022/06/05 00:32:22;;;;;;;17.23;5.18;;;;;;;21.84;68.15;100747.34;2046692;29;20043;-72
2022/06/05 00:33:45;;;;;;;10.38;4.97;;;;;;;21.93;67.98;100751.53;2053698;28;20499;-72
2022/06/05 00:35:09;;;;;;;14.35;4.82;;;;;;;22.01;67.67;100748.66;2053477;28;20058;-72
2022/06/05 00:36:47;;;;;;;12.05;5.28;;;;;;;22.07;67.31;100745.78;2042343;29;20084;-72
2022/06/05 00:38:14;;;;;;;13.25;5.07;;;;;;;22.08;67.24;100751.09;2050872;28;20082;-72
2022/06/05 00:39:46;;;;;;;9.13;4.18;;;;;;;21.99;67.42;100751.38;2057575;28;20538;-72
2022/06/05 00:41:30;;;;;;;13.07;5.57;;;;;;;21.93;67.69;100751.53;2056232;28;20384;-72
2022/06/05 00:42:52;;;;;;;16.00;5.05;;;;;;;21.95;67.71;100754.19;2047488;28;20508;-72
2022/06/05 00:44:19;;;;;;;18.95;5.32;;;;;;;22.00;67.51;100747.78;2066942;28;20038;-72
2022/06/05 00:45:42;;;;;;;12.05;5.80;;;;;;;22.04;67.27;100753.94;2049968;28;20051;-72
2022/06/05 00:47:06;;;;;;;9.65;5.00;;;;;;;22.07;67.03;100745.78;2059252;28;20727;-72
2022/06/05 00:48:28;;;;;;;8.98;4.38;;;;;;;22.06;67.15;100750.25;2061631;28;20050;-72
2022/06/05 00:49:55;;;;;;;25.25;6.50;;;;;;;22.07;67.06;100749.34;2053320;28;20050;-73
2022/06/05 00:51:16;;;;;;;12.45;5.32;;;;;;;22.05;67.23;100751.22;2063761;28;20085;-72
2022/06/05 00:52:42;;;;;;;15.35;5.68;;;;;;;22.05;67.42;100750.34;2047842;29;20081;-73
2022/06/05 00:54:03;;;;;;;11.70;4.85;;;;;;;22.05;67.52;100753.91;2051067;28;20035;-72
2022/06/05 00:55:32;;;;;;;12.38;5.78;;;;;;;22.07;67.47;100749.34;2064946;28;20612;-73
2022/06/05 00:56:53;;;;;;;15.27;5.40;;;;;;;22.07;67.36;100749.34;2039747;29;20048;-73
2022/06/05 00:58:17;;;;;;;14.52;6.38;;;;;;;22.09;67.36;100752.00;2042730;29;20055;-73
2022/06/05 00:59:41;;;;;;;13.52;5.07;;;;;;;22.11;67.17;100755.50;2045569;29;20551;-73
2022/06/05 01:01:05;;;;;;;11.85;5.40;;;;;;;22.10;67.28;100753.75;2037429;29;20043;-73
2022/06/05 01:02:30;;;;;;;13.98;5.53;;;;;;;22.10;67.28;100751.06;2042893;29;20109;-72
2022/06/05 01:03:54;;;;;;;11.32;5.53;;;;;;;22.08;67.20;100752.91;2053376;28;20542;-73
2022/06/05 01:05:19;;;;;;;11.98;5.28;;;;;;;22.01;67.47;100752.22;2061365;28;20638;-73
2022/06/05 01:06:42;;;;;;;14.20;4.82;;;;;;;21.94;67.79;100756.00;2047552;28;20047;-73
2022/06/05 01:08:05;;;;;;;15.63;5.07;;;;;;;21.89;67.97;100755.25;2059179;28;20057;-73
2022/06/05 01:09:28;;;;;;;12.02;4.95;;;;;;;21.89;68.29;100744.50;2062899;28;20509;-72
2022/06/05 01:11:01;;;;;;;10.77;4.30;;;;;;;21.96;68.15;100748.81;2056097;28;20094;-72
2022/06/05 01:12:35;;;;;;;17.92;6.93;;;;;;;22.02;68.04;100753.09;2046211;28;20057;-73
2022/06/05 01:14:09;;;;;;;10.20;4.80;;;;;;;22.00;67.97;100753.16;2053904;28;20050;-73
2022/06/05 01:15:41;;;;;;;11.10;4.72;;;;;;;21.99;67.85;100746.00;2054251;28;20126;-73
2022/06/05 01:17:11;;;;;;;9.35;4.95;;;;;;;21.97;67.89;100750.56;2068910;28;20461;-72
2022/06/05 01:18:43;;;;;;;10.70;5.53;;;;;;;22.00;67.61;100741.50;2064045;28;20049;-73
2022/06/05 01:20:17;;;;;;;14.98;5.45;;;;;;;22.03;67.51;100744.13;2063690;28;20138;-73
2022/06/05 01:21:56;;;;;;;16.33;4.93;;;;;;;22.03;67.31;100744.13;2054444;28;20443;-73
2022/06/05 01:23:41;;;;;;;11.73;5.22;;;;;;;22.03;67.12;100752.19;2055305;28;20082;-73
2022/06/05 01:25:47;;;;;;;12.43;4.80;;;;;;;22.01;67.02;100743.28;2054534;28;20089;-72
2022/06/05 01:27:15;;;;;;;12.52;4.43;;;;;;;22.00;67.12;100742.41;2063784;28;20062;-73
2022/06/05 01:28:43;;;;;;;11.40;4.65;;;;;;;22.01;67.22;100749.53;2061984;28;20557;-73
2022/06/05 01:30:14;;;;;;;12.10;4.80;;;;;;;22.00;67.23;100745.09;2061498;28;20105;-72
2022/06/05 01:31:42;;;;;;;10.43;4.70;;;;;;;21.99;67.22;100750.53;2054751;28;20054;-72
2022/06/05 01:33:10;;;;;;;14.10;4.93;;;;;;;21.98;67.44;100744.28;2057955;28;20084;-72
2022/06/05 01:34:37;;;;;;;13.30;5.50;;;;;;;21.96;67.58;100746.13;2059720;28;20108;-73
2022/06/05 01:36:06;;;;;;;13.13;4.35;;;;;;;21.94;67.56;100734.50;2053798;28;20121;-72
2022/06/05 01:37:34;;;;;;;10.93;4.55;;;;;;;21.97;67.63;100734.44;2052873;28;20487;-71
2022/06/05 01:39:02;;;;;;;9.70;4.53;;;;;;;21.98;67.71;100733.53;2058657;28;20047;-72
2022/06/05 01:40:31;;;;;;;10.75;4.53;;;;;;;22.00;67.69;100736.13;2052783;28;20494;-73
2022/06/05 01:41:58;;;;;;;13.68;5.50;;;;;;;22.01;67.67;100733.41;2047280;28;20055;-72
2022/06/05 01:43:24;;;;;;;11.82;5.53;;;;;;;22.02;67.70;100728.91;2059797;28;20141;-73
2022/06/05 01:44:50;;;;;;;13.52;5.40;;;;;;;22.01;67.92;100733.41;2053451;28;20069;-72
2022/06/05 01:46:20;;;;;;;12.00;4.45;;;;;;;21.96;67.82;100724.63;2053394;28;20050;-72
2022/06/05 01:47:45;;;;;;;16.45;5.65;;;;;;;21.92;67.94;100728.31;2055856;28;20081;-74
2022/06/05 01:49:17;;;;;;;9.80;4.47;;;;;;;21.93;68.02;100727.34;2045136;28;20042;-73
2022/06/05 01:50:43;;;;;;;11.98;4.93;;;;;;;21.93;67.94;100730.03;2037339;29;20055;-73
2022/06/05 01:52:14;;;;;;;11.90;5.03;;;;;;;21.92;67.84;100727.41;2035961;29;20055;-72
2022/06/05 01:53:43;;;;;;;16.65;6.38;;;;;;;21.88;67.73;100727.50;2044960;29;20499;-73
2022/06/05 01:55:09;;;;;;;14.45;5.47;;;;;;;21.86;67.91;100717.72;2049751;28;20046;-73
2022/06/05 01:56:36;;;;;;;11.50;4.65;;;;;;;21.83;67.91;100725.91;2053728;28;20043;-72
2022/06/05 01:58:03;;;;;;;15.13;4.72;;;;;;;21.75;68.00;100731.50;2045432;29;20055;-73
2022/06/05 01:59:38;;;;;;;12.50;4.90;;;;;;;21.63;68.33;100731.88;2045414;29;20843;-73
2022/06/05 02:01:05;;;;;;;14.60;5.28;;;;;;;21.50;68.72;100740.34;2061308;28;20034;-73
2022/06/05 02:02:34;;;;;;;9.82;5.07;;;;;;;21.43;69.04;100729.78;2050614;28;20070;-73
2022/06/05 02:04:00;;;;;;;9.73;5.18;;;;;;;21.36;69.25;100727.31;2059374;28;20590;-74
2022/06/05 02:05:27;;;;;;;12.68;4.88;;;;;;;21.29;69.46;100736.47;2059661;28;20625;-73
2022/06/05 02:06:54;;;;;;;9.75;4.53;;;;;;;21.20;69.64;100734.09;2055175;28;20043;-73
2022/06/05 02:08:23;;;;;;;13.75;4.93;;;;;;;21.15;69.88;100731.47;2061697;28;20068;-73
2022/06/05 02:09:52;;;;;;;10.20;4.38;;;;;;;21.16;70.15;100740.44;2062806;28;20076;-72
2022/06/05 02:11:19;;;;;;;12.35;5.05;;;;;;;21.18;70.13;100735.91;2050650;28;20508;-73
2022/06/05 02:12:43;;;;;;;14.18;5.97;;;;;;;21.25;69.84;100733.03;2047253;29;20055;-73
2022/06/05 02:14:07;;;;;;;11.80;4.63;;;;;;;21.29;69.82;100726.63;2046562;29;20047;-73
2022/06/05 02:15:31;;;;;;;11.30;4.75;;;;;;;21.32;69.66;100739.09;2049715;28;20434;-72
2022/06/05 02:16:54;;;;;;;12.30;5.43;;;;;;;21.36;69.55;100732.69;2060477;28;20201;-73
2022/06/05 02:18:16;;;;;;;12.73;5.78;;;;;;;21.42;69.38;100733.41;2055482;28;20039;-72
2022/06/05 02:19:39;;;;;;;14.93;4.63;;;;;;;21.46;69.23;100729.69;2054128;28;20050;-73
2022/06/05 02:21:01;;;;;;;14.57;5.82;;;;;;;21.49;68.96;100726.03;2054554;28;20595;-73
2022/06/05 02:22:28;;;;;;;14.80;6.53;;;;;;;21.53;68.99;100722.31;2053581;28;20046;-73
2022/06/05 02:23:51;;;;;;;13.13;5.28;;;;;;;21.56;68.89;100724.03;2045194;28;20514;-73
2022/06/05 02:25:17;;;;;;;16.52;6.00;;;;;;;21.58;68.76;100725.78;2057937;28;20070;-73
2022/06/05 02:26:41;;;;;;;13.48;6.32;;;;;;;21.59;68.68;100721.28;2046567;29;20055;-72
2022/06/05 02:28:03;;;;;;;13.32;5.88;;;;;;;21.61;68.90;100730.16;2046842;28;20081;-73
2022/06/05 02:29:27;;;;;;;14.07;5.20;;;;;;;21.63;68.97;100720.25;2054685;28;20955;-73
2022/06/05 02:31:03;;;;;;;17.75;6.05;;;;;;;21.61;68.90;100719.41;2048773;29;20044;-73
2022/06/05 02:32:39;;;;;;;9.63;4.82;;;;;;;21.58;68.93;100725.78;2055836;28;20051;-74
2022/06/05 02:34:13;;;;;;;15.38;4.35;;;;;;;21.47;69.01;100720.69;2048707;29;20062;-73
2022/06/05 02:35:45;;;;;;;15.57;5.28;;;;;;;21.31;69.75;100714.03;2056005;28;20058;-73
2022/06/05 02:37:21;;;;;;;12.70;4.55;;;;;;;21.28;70.15;100724.84;2053835;28;20554;-73
2022/06/05 02:38:58;;;;;;;13.70;5.22;;;;;;;21.25;70.05;100719.59;2056278;28;20050;-73
2022/06/05 02:40:29;;;;;;;9.48;4.78;;;;;;;21.17;70.23;100736.84;2049341;28;20080;-72
2022/06/05 02:42:00;;;;;;;11.38;4.25;;;;;;;21.09;70.35;100729.84;2064772;28;20065;-73
2022/06/05 02:43:30;;;;;;;10.13;4.70;;;;;;;21.03;70.61;100726.44;2056613;28;20050;-72
2022/06/05 02:44:58;;;;;;;13.38;4.65;;;;;;;21.01;70.73;100726.47;2039514;29;20079;-73
2022/06/05 02:46:29;;;;;;;17.17;6.10;;;;;;;21.08;70.92;100732.56;2053998;28;20063;-73
2022/06/05 02:47:56;;;;;;;10.35;4.75;;;;;;;21.17;70.43;100726.09;2053131;28;20555;-73
2022/06/05 02:49:27;;;;;;;13.02;5.53;;;;;;;21.20;70.17;100724.19;2063021;28;20050;-74
2022/06/05 02:50:55;;;;;;;11.85;5.25;;;;;;;21.25;70.03;100735.72;2049904;28;20039;-73
2022/06/05 02:52:19;;;;;;;17.73;5.43;;;;;;;21.27;69.66;100739.19;2054978;28;20119;-73
2022/06/05 02:53:50;;;;;;;9.93;4.93;;;;;;;21.29;69.72;100736.47;2043913;29;20043;-73
2022/06/05 02:55:15;;;;;;;11.05;5.00;;;;;;;21.29;69.74;100732.00;2056616;28;20050;-74
2022/06/05 02:56:38;;;;;;;13.35;5.68;;;;;;;21.31;69.40;100730.16;2056637;28;20081;-72
2022/06/05 02:58:01;;;;;;;12.98;4.70;;;;;;;21.33;69.47;100728.28;2054040;28;20110;-72
2022/06/05 02:59:24;;;;;;;10.95;5.20;;;;;;;21.33;69.50;100725.59;2056837;28;20574;-71
2022/06/05 03:04:07;;;;;;;15.95;4.95;;;;;;;21.23;70.05;100732.16;2056606;28;20101;-72
2022/06/05 03:05:30;;;;;;;14.32;5.55;;;;;;;21.21;69.99;100731.31;2060406;28;20078;-71
2022/06/05 03:06:52;;;;;;;10.63;5.15;;;;;;;21.24;70.27;100733.06;2054326;28;20043;-72
2022/06/05 03:08:16;;;;;;;10.73;4.70;;;;;;;21.29;69.87;100729.31;2046003;29;20070;-72
2022/06/05 03:09:39;;;;;;;15.05;4.97;;;;;;;21.26;69.91;100737.47;2038018;28;20083;-72
2022/06/05 03:11:01;;;;;;;10.10;5.25;;;;;;;21.17;70.05;100737.72;2050705;28;20463;-72
2022/06/05 03:12:25;;;;;;;10.32;3.95;;;;;;;21.06;70.43;100737.13;2059021;28;20049;-72
2022/06/05 03:13:47;;;;;;;11.00;4.93;;;;;;;20.96;70.82;100739.16;2062220;28;20082;-72
2022/06/05 03:15:10;;;;;;;9.15;4.28;;;;;;;20.92;71.31;100733.94;2059703;28;20057;-72
2022/06/05 03:16:33;;;;;;;16.08;5.78;;;;;;;20.92;71.18;100734.81;2062030;28;20490;-72
2022/06/05 03:17:58;;;;;;;13.45;5.18;;;;;;;21.03;71.31;100731.81;2059739;28;20053;-71
2022/06/05 03:19:22;;;;;;;15.20;5.07;;;;;;;21.11;70.97;100739.66;2046436;29;20130;-72
2022/06/05 03:20:44;;;;;;;14.25;5.70;;;;;;;21.18;70.75;100735.91;2040479;29;20094;-71
2022/06/05 03:22:06;;;;;;;17.25;7.10;;;;;;;21.28;70.68;100729.34;2038234;29;20075;-72
2022/06/05 03:23:29;;;;;;;10.88;4.90;;;;;;;21.37;70.25;100735.34;2043514;29;20047;-72
2022/06/05 03:24:50;;;;;;;13.02;5.70;;;;;;;21.47;70.15;100735.94;2045832;29;20057;-72
2022/06/05 03:26:14;;;;;;;11.18;5.20;;;;;;;21.58;69.92;100738.31;2053655;28;20130;-72
2022/06/05 03:27:36;;;;;;;17.50;5.00;;;;;;;21.64;69.66;100732.75;2054082;28;20397;-71
2022/06/05 03:28:59;;;;;;;14.68;5.25;;;;;;;21.71;69.44;100734.34;2053576;28;21018;-72
2022/06/05 03:30:21;;;;;;;11.25;5.32;;;;;;;21.74;69.60;100728.84;2045481;28;20135;-71
2022/06/05 03:31:44;;;;;;;11.50;4.88;;;;;;;21.81;69.44;100731.31;2053815;28;20058;-72
2022/06/05 03:33:09;;;;;;;15.30;5.28;;;;;;;21.90;69.32;100727.47;2042973;29;20154;-71
2022/06/05 03:34:31;;;;;;;10.57;4.95;;;;;;;22.01;69.26;100733.41;2059414;28;20072;-71
2022/06/05 03:35:53;;;;;;;12.00;5.35;;;;;;;22.13;69.04;100726.75;2058539;28;20129;-71
2022/06/05 03:37:16;;;;;;;9.93;4.88;;;;;;;22.25;68.78;100724.53;2055497;28;20066;-71
2022/06/05 03:38:40;;;;;;;11.18;4.55;;;;;;;22.38;68.65;100732.22;2040493;29;20142;-72
2022/06/05 03:40:03;;;;;;;16.67;5.68;;;;;;;22.48;68.42;100725.59;2043728;29;20047;-72
2022/06/05 03:41:24;;;;;;;11.40;4.90;;;;;;;22.60;68.22;100719.78;2056283;28;20043;-71
2022/06/05 03:42:47;;;;;;;12.38;4.70;;;;;;;22.67;67.92;100719.50;2048256;28;20772;-71
2022/06/05 03:44:12;;;;;;;11.40;5.05;;;;;;;22.72;67.73;100719.34;2049888;28;20061;-72
2022/06/05 03:45:35;;;;;;;10.80;4.15;;;;;;;22.70;67.74;100720.34;2057844;28;20541;-71
2022/06/05 03:46:57;;;;;;;10.30;4.63;;;;;;;22.75;67.89;100721.09;2053234;28;20134;-72
2022/06/05 03:48:22;;;;;;;9.32;4.57;;;;;;;22.83;67.83;100717.22;2046347;29;20051;-72
2022/06/05 03:49:44;;;;;;;13.02;5.68;;;;;;;22.95;67.64;100722.16;2047411;29;20139;-73
2022/06/05 03:51:06;;;;;;;10.95;4.53;;;;;;;23.11;67.45;100718.88;2053478;28;20106;-72
2022/06/05 03:52:29;;;;;;;11.45;4.70;;;;;;;23.24;67.10;100721.06;2056440;28;20145;-71
2022/06/05 03:53:51;;;;;;;10.65;4.35;;;;;;;23.34;66.77;100721.63;2048306;29;20585;-72
2022/06/05 03:55:16;;;;;;;12.13;4.10;;;;;;;23.33;66.37;100728.81;2050242;28;20062;-72
2022/06/05 03:56:40;;;;;;;10.10;3.92;;;;;;;23.35;66.36;100728.78;2053960;28;20109;-72
2022/06/05 03:58:03;;;;;;;11.27;3.75;;;;;;;23.50;66.23;100727.34;2047433;28;20071;-71
2022/06/05 03:59:27;;;;;;;11.38;3.95;;;;;;;23.65;65.67;100737.53;2043649;29;20047;-72
2022/06/05 04:00:50;;;;;;;10.23;3.80;;;;;;;23.65;65.31;100743.78;2053473;28;20137;-72
2022/06/05 04:02:12;;;;;;;10.38;4.05;;;;;;;23.59;65.19;100743.16;2056272;28;20062;-72
2022/06/05 04:03:35;;;;;;;11.23;4.15;;;;;;;23.58;65.35;100741.38;2056328;28;20043;-71
2022/06/05 04:04:58;;;;;;;13.90;4.05;;;;;;;23.68;65.34;100753.59;2052799;28;20133;-72
2022/06/05 04:06:27;;;;;;;9.25;3.72;;;;;;;23.83;64.97;100761.06;2053553;28;20057;-73
2022/06/05 04:07:50;;;;;;;12.13;4.95;;;;;;;23.94;64.54;100753.47;2054757;28;20082;-74
2022/06/05 04:09:11;;;;;;;8.73;3.75;;;;;;;24.11;64.15;100760.88;2045854;28;20149;-73
2022/06/05 04:10:34;;;;;;;8.82;3.83;;;;;;;24.24;63.52;100759.47;2050936;28;20062;-72
2022/06/05 04:11:57;;;;;;;9.85;4.18;;;;;;;24.33;63.13;100758.22;2058914;28;20054;-72
2022/06/05 04:13:19;;;;;;;10.65;4.18;;;;;;;24.47;63.01;100770.19;2061301;28;20057;-73
2022/06/05 04:14:42;;;;;;;8.93;3.45;;;;;;;24.59;62.69;100767.00;2053689;28;20415;-73
2022/06/05 04:16:09;;;;;;;11.48;4.00;;;;;;;24.70;62.15;100760.25;2037954;29;20067;-73
2022/06/05 04:17:32;;;;;;;9.30;4.30;;;;;;;24.83;61.93;100761.47;2054482;28;20065;-73
2022/06/05 04:18:58;;;;;;;8.80;3.63;;;;;;;25.01;61.86;100764.28;2053218;28;20073;-73
2022/06/05 04:20:20;;;;;;;8.68;3.63;;;;;;;25.19;61.30;100762.59;2046049;29;20491;-73
2022/06/05 04:21:47;;;;;;;10.48;3.70;;;;;;;25.23;60.81;100766.91;2045796;29;20677;-73
2022/06/05 04:23:10;;;;;;;9.68;4.07;;;;;;;25.22;60.99;100762.44;2060802;28;20054;-74
2022/06/05 04:24:33;;;;;;;7.85;3.75;;;;;;;25.31;61.10;100769.28;2061588;28;20499;-74
2022/06/05 04:25:54;;;;;;;8.90;3.72;;;;;;;25.45;60.53;100769.53;2057687;28;20546;-72
2022/06/05 04:27:16;;;;;;;8.35;4.07;;;;;;;25.64;59.92;100769.59;2051917;28;20058;-72
2022/06/05 04:28:38;;;;;;;8.40;4.00;;;;;;;25.82;59.38;100766.00;2061642;28;20478;-73
2022/06/05 04:30:00;;;;;;;;;;;;;;;26.00;58.75;100767.84;2052979;28;20043;-73
2022/06/05 04:31:27;;;;;;;11.75;3.63;;;;;;;26.28;58.38;100766.53;2061324;28;19976;-73
2022/06/05 04:32:50;;;;;;;6.95;3.42;;;;;;;26.49;57.78;100769.06;2047796;29;20054;-72
2022/06/05 04:34:19;;;;;;;7.10;3.20;;;;;;;26.67;57.41;100763.66;2045603;29;20055;-73
2022/06/05 04:35:41;;;;;;;10.98;3.38;;;;;;;26.87;56.97;100768.94;2053481;28;20054;-74
2022/06/05 04:37:04;;;;;;;8.32;3.25;;;;;;;27.07;56.18;100767.94;2054542;28;20586;-72
2022/06/05 04:38:27;;;;;;;10.80;3.90;;;;;;;27.26;55.59;100769.59;2053514;28;20057;-73
2022/06/05 04:39:50;;;;;;;10.75;3.35;;;;;;;27.44;54.93;100766.88;2052884;28;20051;-73
2022/06/05 04:41:12;;;;;;;10.25;3.30;;;;;;;27.61;54.66;100766.84;2061304;28;20050;-73
2022/06/05 04:42:35;;;;;;;8.90;3.50;;;;;;;27.77;54.20;100765.03;2055501;28;20487;-73
2022/06/05 04:43:58;;;;;;;11.15;4.05;;;;;;;27.94;53.69;100773.13;2045604;29;20109;-73
2022/06/05 04:45:21;;;;;;;10.75;4.20;;;;;;;28.11;53.24;100769.44;2050783;28;20047;-74
2022/06/05 04:46:43;;;;;;;9.90;3.22;;;;;;;28.25;53.16;100777.69;2053166;28;20063;-74
2022/06/05 04:48:07;;;;;;;11.30;4.00;;;;;;;28.40;53.02;100779.53;2055728;28;20113;-73
2022/06/05 04:49:31;;;;;;;12.30;3.20;;;;;;;28.62;52.53;100779.13;2052317;28;20430;-73
2022/06/05 04:50:52;;;;;;;9.20;3.00;;;;;;;28.83;51.93;100787.91;2055428;28;20047;-73
2022/06/05 04:52:15;;;;;;;10.38;3.15;;;;;;;28.99;51.50;100783.31;2055954;28;20098;-74
2022/06/05 04:53:38;;;;;;;12.93;3.13;;;;;;;29.17;51.15;100790.34;2053802;28;20141;-74
2022/06/05 04:55:01;;;;;;;9.60;3.13;;;;;;;29.36;50.88;100802.84;2048062;28;20051;-74
2022/06/05 04:56:26;;;;;;;11.43;3.50;;;;;;;29.47;50.36;100794.91;2045379;29;20520;-73
2022/06/05 04:57:48;;;;;;;9.60;3.30;;;;;;;29.58;50.05;100795.09;2051569;28;20507;-73
2022/06/05 04:59:12;;;;;;;8.77;3.25;;;;;;;29.69;49.64;100804.34;2053322;28;20141;-73
2022/06/05 05:00:33;;;;;;;10.57;4.03;;;;;;;29.84;49.25;100805.22;2055239;28;20047;-74
2022/06/05 05:01:56;;;;;;;11.75;3.50;;;;;;;30.03;49.18;100804.94;2058271;28;20050;-73
2022/06/05 05:03:17;;;;;;;10.55;3.20;;;;;;;30.25;48.62;100804.44;2045410;29;20050;-73
2022/06/05 05:04:41;;;;;;;12.65;3.65;;;;;;;30.45;48.19;100802.13;2049140;28;20070;-73
2022/06/05 05:06:04;;;;;;;14.95;3.25;;;;;;;30.67;47.75;100809.78;2053552;28;20463;-73
2022/06/05 05:07:27;;;;;;;8.85;3.00;;;;;;;30.91;46.85;100806.38;2052823;28;20141;-74
2022/06/05 05:08:49;;;;;;;7.65;2.78;;;;;;;31.09;46.13;100805.13;2045575;29;20499;-73
2022/06/05 05:10:12;;;;;;;8.50;3.30;;;;;;;31.26;45.71;100808.44;2037397;29;20050;-74
2022/06/05 05:11:35;;;;;;;13.00;2.90;;;;;;;31.48;44.66;100799.63;2058758;28;20108;-74
2022/06/05 05:12:58;;;;;;;9.00;3.08;;;;;;;31.67;44.12;100801.94;2050332;28;20460;-74
2022/06/05 05:14:20;;;;;;;12.32;2.92;;;;;;;31.70;44.14;100800.88;2065445;28;20050;-73
2022/06/05 05:15:43;;;;;;;13.05;3.22;;;;;;;31.51;43.93;100806.69;2055490;28;20074;-73
2022/06/05 05:17:06;;;;;;;9.48;3.58;;;;;;;31.25;44.27;100803.94;2053368;28;20043;-73
2022/06/05 05:18:29;;;;;;;15.10;4.22;;;;;;;31.04;44.70;100813.63;2050157;28;20047;-73
2022/06/05 05:19:55;;;;;;;12.30;3.47;;;;;;;30.88;44.98;100811.06;2045170;29;20138;-73
2022/06/05 05:21:21;;;;;;;7.25;2.97;;;;;;;30.82;44.66;100813.31;2045571;29;20090;-72
2022/06/05 05:22:44;;;;;;;9.35;3.50;;;;;;;31.12;43.86;100802.19;2045831;29;20054;-72
2022/06/05 05:24:08;;;;;;;12.63;3.45;;;;;;;31.50;42.94;100808.59;2037109;29;20067;-72
2022/06/05 05:25:30;;;;;;;7.13;2.90;;;;;;;31.84;42.27;100814.38;2065141;28;20143;-71
2022/06/05 05:26:53;;;;;;;9.00;2.25;;;;;;;32.15;41.68;100807.59;2058224;28;20097;-73
2022/06/05 05:28:16;;;;;;;12.55;2.90;;;;;;;32.39;41.10;100811.25;2044823;29;20157;-71
2022/06/05 05:29:40;;;;;;;9.88;2.60;;;;;;;32.64;40.67;100818.47;2052028;28;20060;-73
2022/06/05 05:31:06;;;;;;;10.85;3.22;;;;;;;32.90;40.65;100822.84;2053351;28;20054;-72
2022/06/05 05:32:28;;;;;;;6.32;2.10;;;;;;;33.07;40.05;100825.19;2059973;28;20056;-72
2022/06/05 05:33:52;;;;;;;8.05;2.75;;;;;;;33.19;39.76;100820.66;2061166;28;20057;-72
2022/06/05 05:35:16;;;;;;;10.77;2.85;;;;;;;33.35;39.21;100831.25;2054821;28;20108;-72
2022/06/05 05:36:39;;;;;;;14.15;2.85;;;;;;;33.43;38.98;100832.41;2044948;28;20167;-72
2022/06/05 05:38:02;;;;;;;8.80;2.85;;;;;;;33.52;38.85;100831.69;2051397;28;20067;-72
2022/06/05 05:42:44;;;;;;;10.15;2.92;;;;;;;33.91;38.02;100821.31;2054608;28;20047;-72
2022/06/05 05:44:06;;;;;;;15.60;2.75;;;;;;;33.95;37.81;100823.66;2052914;28;20564;-73
2022/06/05 05:45:29;;;;;;;9.38;3.00;;;;;;;34.10;37.33;100826.16;2053542;28;20510;-72
2022/06/05 05:46:51;;;;;;;8.80;2.60;;;;;;;34.23;37.03;100824.19;2055421;28;20797;-72
2022/06/05 05:48:13;;;;;;;;;;;;;;;34.27;36.32;100822.94;2045560;28;20075;-73
2022/06/05 05:49:36;;;;;;;7.18;2.80;;;;;;;34.42;36.86;100829.91;2050586;28;20392;-72
2022/06/05 05:51:00;;;;;;;9.90;2.38;;;;;;;34.55;36.45;100832.47;2058779;28;20046;-73
2022/06/05 05:52:24;;;;;;;12.13;3.13;;;;;;;34.67;35.84;100832.31;2055569;28;20230;-72
2022/06/05 05:53:45;;;;;;;9.18;2.60;;;;;;;34.71;35.36;100822.88;2053130;28;20070;-72
2022/06/05 05:55:12;;;;;;;9.15;2.72;;;;;;;34.62;35.23;100834.59;2038421;29;20476;-72
2022/06/05 05:56:34;;;;;;;8.90;2.58;;;;;;;34.67;35.08;100832.31;2052433;28;20092;-73
2022/06/05 05:57:57;;;;;;;10.20;2.40;;;;;;;34.76;35.12;100831.59;2046243;28;20106;-73
2022/06/05 05:59:18;;;;;;;6.43;2.75;;;;;;;34.88;34.90;100832.41;2053170;28;20511;-72
2022/06/05 06:00:41;;;;;;;5.90;2.63;;;;;;;34.97;34.70;100834.41;2039465;29;20031;-72
2022/06/05 06:02:04;;;;;;;10.23;2.70;;;;;;;35.02;34.66;100834.88;2053059;28;20138;-73
2022/06/05 06:03:26;;;;;;;9.15;2.90;;;;;;;35.06;34.54;100835.47;2055433;28;20043;-73
2022/06/05 06:04:50;;;;;;;9.68;2.83;;;;;;;35.20;34.44;100840.63;2058564;28;20911;-73
2022/06/05 06:06:14;;;;;;;15.57;3.10;;;;;;;35.32;33.95;100836.84;2061036;28;20085;-72
2022/06/05 06:07:37;;;;;;;16.00;2.95;;;;;;;35.34;33.78;100836.72;2061173;28;20049;-73
2022/06/05 06:08:58;;;;;;;8.38;3.53;;;;;;;35.26;34.13;100842.88;2048070;28;20051;-73
2022/06/05 06:10:22;;;;;;;7.47;2.42;;;;;;;35.22;33.93;100837.81;2050421;28;20058;-73
2022/06/05 06:11:45;;;;;;;11.90;3.05;;;;;;;35.17;33.86;100849.16;2052292;28;20043;-73
2022/06/05 06:13:08;;;;;;;10.68;2.78;;;;;;;35.30;33.82;100843.50;2052457;28;20046;-73
2022/06/05 06:14:30;;;;;;;13.95;3.45;;;;;;;35.37;33.62;100836.47;2052756;28;20046;-73
2022/06/05 06:15:53;;;;;;;10.70;3.50;;;;;;;35.33;33.44;100838.59;2060460;28;20054;-72
2022/06/05 06:17:16;;;;;;;9.70;2.40;;;;;;;35.26;33.19;100840.13;2055632;28;20057;-73
2022/06/05 06:18:39;;;;;;;11.73;2.75;;;;;;;35.23;33.36;100842.28;2047219;29;20595;-74
2022/06/05 06:20:01;;;;;;;12.45;2.65;;;;;;;35.30;33.40;100844.38;2045600;28;20078;-72
2022/06/05 06:21:26;;;;;;;11.52;3.38;;;;;;;35.35;33.30;100843.97;2065011;28;20058;-74
2022/06/05 06:22:49;;;;;;;5.63;2.47;;;;;;;35.42;33.03;100839.69;2047303;29;20054;-74
2022/06/05 06:24:12;;;;;;;9.20;2.80;;;;;;;35.43;33.03;100842.31;2042554;29;20059;-73
2022/06/05 06:25:36;;;;;;;11.57;2.53;;;;;;;35.42;32.91;100840.56;2050434;28;20050;-73
2022/06/05 06:26:59;;;;;;;8.98;2.50;;;;;;;35.35;32.77;100841.22;2052087;28;20142;-74
2022/06/05 06:28:22;;;;;;;12.65;2.92;;;;;;;35.28;32.94;100848.25;2045070;29;20074;-73
2022/06/05 06:29:44;;;;;;;8.52;2.72;;;;;;;35.23;32.85;100840.41;2059761;28;20101;-73
2022/06/05 06:31:09;;;;;;;9.23;2.60;;;;;;;35.24;32.72;100847.66;2055200;28;20468;-73
2022/06/05 06:32:31;;;;;;;12.15;2.60;;;;;;;35.24;32.50;100849.53;2055023;28;20483;-73
2022/06/05 06:33:54;;;;;;;9.05;2.83;;;;;;;35.10;32.58;100845.19;2052427;28;20078;-73
2022/06/05 06:35:16;;;;;;;7.15;2.80;;;;;;;35.07;32.69;100835.34;2051635;28;20570;-72
2022/06/05 06:36:40;;;;;;;10.88;2.13;;;;;;;35.18;32.71;100840.75;2059108;28;20073;-74
2022/06/05 06:38:03;;;;;;;12.85;3.40;;;;;;;35.26;32.85;100831.03;2054039;28;20050;-74
2022/06/05 06:39:26;;;;;;;7.75;2.13;;;;;;;35.35;32.39;100838.47;2060317;28;20053;-72
2022/06/05 06:40:48;;;;;;;9.25;2.28;;;;;;;35.51;32.40;100839.75;2041980;29;20055;-73